sensor_id;sensor_type;location;lat;lon;timestamp;pressure;altitude;pressure_sealevel;temperature;humidity
12913;BME280;6524;51.368;11.984;2023-02-28T00:01:52;101721.28;;;-0.68;44.58
12913;BME280;6524;51.368;11.984;2023-02-28T00:06:52;101732.41;;;-0.43;44.34
12913;BME280;6524;51.368;11.984;2023-02-28T00:11:53;101724.34;;;-0.08;44.01
12913;BME280;6524;51.368;11.984;2023-02-28T00:16:53;101720.13;;;-0.24;44.07
12913;BME280;6524;51.368;11.984;2023-02-28T00:21:53;101724.56;;;-0.41;44.41
12913;BME280;6524;51.368;11.984;2023-02-28T00:26:54;101717.41;;;-0.09;43.71
12913;BME280;6524;51.368;11.984;2023-02-28T00:31:54;101714.78;;;-0.07;43.58
12913;BME280;6524;51.368;11.984;2023-02-28T00:36:54;101714.06;;;-0.29;44.46
12913;BME280;6524;51.368;11.984;2023-02-28T00:41:55;101716.78;;;-0.41;44.71
12913;BME280;6524;51.368;11.984;2023-02-28T00:46:55;101712.16;;;-0.06;43.67
12913;BME280;6524;51.368;11.984;2023-02-28T00:51:56;101708.00;;;-0.28;44.73
12913;BME280;6524;51.368;11.984;2023-02-28T00:56:57;101722.63;;;-0.09;44.28
12913;BME280;6524;51.368;11.984;2023-02-28T05:03:39;101715.53;;;-1.42;46.92
12913;BME280;6524;51.368;11.984;2023-02-28T05:08:40;101715.53;;;-1.63;47.57
12913;BME280;6524;51.368;11.984;2023-02-28T05:13:41;101714.59;;;-1.24;47.29
12913;BME280;6524;51.368;11.984;2023-02-28T05:18:41;101719.84;;;-1.36;47.44
12913;BME280;6524;51.368;11.984;2023-02-28T05:23:42;101721.28;;;-0.68;45.81
12913;BME280;6524;51.368;11.984;2023-02-28T05:28:42;101725.00;;;-1.18;46.91
12913;BME280;6524;51.368;11.984;2023-02-28T05:33:43;101724.09;;;-1.11;46.28
12913;BME280;6524;51.368;11.984;2023-02-28T05:38:46;101725.03;;;-1.27;45.64
12913;BME280;6524;51.368;11.984;2023-02-28T05:43:48;101731.16;;;-1.50;46.33
12913;BME280;6524;51.368;11.984;2023-02-28T05:48:50;101743.25;;;-1.36;46.10
12913;BME280;6524;51.368;11.984;2023-02-28T05:53:50;101740.69;;;-1.58;46.85
12913;BME280;6524;51.368;11.984;2023-02-28T05:58:51;101746.75;;;-1.62;46.85
12913;BME280;6524;51.368;11.984;2023-02-28T06:03:51;101752.81;;;-1.61;46.33
12913;BME280;6524;51.368;11.984;2023-02-28T06:08:52;101753.66;;;-1.38;45.88
12913;BME280;6524;51.368;11.984;2023-02-28T06:13:54;101758.03;;;-1.51;46.27
12913;BME280;6524;51.368;11.984;2023-02-28T06:18:57;101761.44;;;-1.33;46.75
12913;BME280;6524;51.368;11.984;2023-02-28T06:23:58;101766.66;;;-1.49;46.73
12913;BME280;6524;51.368;11.984;2023-02-28T06:28:59;101771.75;;;-1.00;45.75
12913;BME280;6524;51.368;11.984;2023-02-28T06:34:00;101781.22;;;-0.85;44.80
12913;BME280;6524;51.368;11.984;2023-02-28T06:39:01;101777.69;;;-0.73;45.14
12913;BME280;6524;51.368;11.984;2023-02-28T06:44:01;101792.53;;;-0.97;45.41
12913;BME280;6524;51.368;11.984;2023-02-28T06:49:02;101783.75;;;-0.69;45.79
12913;BME280;6524;51.368;11.984;2023-02-28T06:54:03;101790.63;;;-0.55;44.88
12913;BME280;6524;51.368;11.984;2023-02-28T06:59:04;101788.84;;;-0.43;44.70
12913;BME280;6524;51.368;11.984;2023-02-28T07:04:05;101796.56;;;-0.28;44.22
12913;BME280;6524;51.368;11.984;2023-02-28T07:09:05;101802.09;;;0.48;43.27
12913;BME280;6524;51.368;11.984;2023-02-28T07:14:07;101796.38;;;2.71;38.48
12913;BME280;6524;51.368;11.984;2023-02-28T07:19:07;101805.69;;;5.10;33.86
12913;BME280;6524;51.368;11.984;2023-02-28T07:24:07;101806.22;;;6.62;32.10
12913;BME280;6524;51.368;11.984;2023-02-28T07:29:08;101813.66;;;7.70;29.71
12913;BME280;6524;51.368;11.984;2023-02-28T07:34:08;101817.22;;;9.92;26.96
12913;BME280;6524;51.368;11.984;2023-02-28T07:39:09;101825.91;;;10.48;25.38
12913;BME280;6524;51.368;11.984;2023-02-28T07:44:11;101821.19;;;10.54;24.79
12913;BME280;6524;51.368;11.984;2023-02-28T07:49:11;101825.16;;;11.14;23.79
12913;BME280;6524;51.368;11.984;2023-02-28T07:54:12;101826.28;;;10.92;24.25
12913;BME280;6524;51.368;11.984;2023-02-28T07:59:12;101830.22;;;10.85;24.27
12913;BME280;6524;51.368;11.984;2023-02-28T08:04:13;101828.41;;;13.89;21.53
12913;BME280;6524;51.368;11.984;2023-02-28T08:09:13;101833.13;;;13.98;21.85
12913;BME280;6524;51.368;11.984;2023-02-28T08:14:14;101838.56;;;13.26;21.15
12913;BME280;6524;51.368;11.984;2023-02-28T08:19:15;101835.13;;;14.34;20.28
12913;BME280;6524;51.368;11.984;2023-02-28T08:24:15;101836.28;;;15.34;19.66
12913;BME280;6524;51.368;11.984;2023-02-28T08:29:16;101830.53;;;14.63;19.39
12913;BME280;6524;51.368;11.984;2023-02-28T08:34:16;101830.13;;;14.95;20.13
12913;BME280;6524;51.368;11.984;2023-02-28T08:39:17;101832.81;;;15.57;19.41
12913;BME280;6524;51.368;11.984;2023-02-28T08:44:17;101839.91;;;15.33;19.31
12913;BME280;6524;51.368;11.984;2023-02-28T08:49:18;101839.28;;;16.38;18.26
12913;BME280;6524;51.368;11.984;2023-02-28T08:54:18;101845.53;;;17.41;17.28
12913;BME280;6524;51.368;11.984;2023-02-28T08:59:19;101841.06;;;17.31;17.20
12913;BME280;6524;51.368;11.984;2023-02-28T09:04:20;101845.94;;;18.03;16.03
12913;BME280;6524;51.368;11.984;2023-02-28T09:09:20;101842.34;;;17.81;16.37
12913;BME280;6524;51.368;11.984;2023-02-28T09:14:21;101839.44;;;17.51;16.51
12913;BME280;6524;51.368;11.984;2023-02-28T09:19:21;101840.16;;;16.96;15.80
12913;BME280;6524;51.368;11.984;2023-02-28T09:24:22;101832.63;;;16.08;16.52
12913;BME280;6524;51.368;11.984;2023-02-28T09:29:22;101838.97;;;15.71;16.85
12913;BME280;6524;51.368;11.984;2023-02-28T09:34:23;101842.31;;;15.98;16.31
12913;BME280;6524;51.368;11.984;2023-02-28T09:39:24;101836.16;;;12.03;18.92
12913;BME280;6524;51.368;11.984;2023-02-28T09:44:32;101841.66;;;12.90;18.54
12913;BME280;6524;51.368;11.984;2023-02-28T09:49:45;101843.53;;;15.45;16.66
12913;BME280;6524;51.368;11.984;2023-02-28T09:54:47;101836.03;;;12.66;17.70
12913;BME280;6524;51.368;11.984;2023-02-28T10:05:20;101833.09;;;14.90;17.13
12913;BME280;6524;51.368;11.984;2023-02-28T10:10:27;101831.97;;;15.44;17.07
12913;BME280;6524;51.368;11.984;2023-02-28T10:15:30;101837.13;;;15.71;17.10
12913;BME280;6524;51.368;11.984;2023-02-28T10:20:34;101843.16;;;13.10;18.42
12913;BME280;6524;51.368;11.984;2023-02-28T10:25:37;101849.59;;;14.17;18.05
12913;BME280;6524;51.368;11.984;2023-02-28T10:30:41;101838.72;;;15.87;16.76
12913;BME280;6524;51.368;11.984;2023-02-28T10:35:42;101838.28;;;16.28;16.42
12913;BME280;6524;51.368;11.984;2023-02-28T10:40:43;101833.09;;;15.16;17.31
12913;BME280;6524;51.368;11.984;2023-02-28T10:50:55;101826.72;;;12.73;19.64
12913;BME280;6524;51.368;11.984;2023-02-28T11:01:02;101813.91;;;14.73;18.30
12913;BME280;6524;51.368;11.984;2023-02-28T11:06:08;101802.91;;;14.24;18.28
12913;BME280;6524;51.368;11.984;2023-02-28T11:11:13;101806.44;;;13.15;18.90
12913;BME280;6524;51.368;11.984;2023-02-28T11:16:14;101796.94;;;14.34;18.40
12913;BME280;6524;51.368;11.984;2023-02-28T11:21:19;101799.56;;;14.99;17.55
12913;BME280;6524;51.368;11.984;2023-02-28T11:26:38;101785.06;;;14.52;18.48
12913;BME280;6524;51.368;11.984;2023-02-28T11:31:39;101790.34;;;14.39;18.80
12913;BME280;6524;51.368;11.984;2023-02-28T11:36:40;101789.50;;;14.39;18.94
12913;BME280;6524;51.368;11.984;2023-02-28T11:47:15;101786.13;;;14.62;18.24
12913;BME280;6524;51.368;11.984;2023-02-28T11:52:33;101796.28;;;14.17;18.36
12913;BME280;6524;51.368;11.984;2023-02-28T12:13:48;101777.25;;;12.85;19.45
12913;BME280;6524;51.368;11.984;2023-02-28T12:24:26;101765.13;;;11.44;20.60
12913;BME280;6524;51.368;11.984;2023-02-28T12:29:43;101756.41;;;11.42;21.21
12913;BME280;6524;51.368;11.984;2023-02-28T12:34:49;101750.78;;;10.49;21.60
12913;BME280;6524;51.368;11.984;2023-02-28T12:39:55;101746.50;;;10.46;22.10
12913;BME280;6524;51.368;11.984;2023-02-28T12:45:08;101751.50;;;10.35;22.24
12913;BME280;6524;51.368;11.984;2023-02-28T12:50:11;101734.69;;;10.53;21.97
12913;BME280;6524;51.368;11.984;2023-02-28T12:55:23;101722.66;;;11.13;21.06
12913;BME280;6524;51.368;11.984;2023-02-28T13:00:34;101725.72;;;9.50;22.65
12913;BME280;6524;51.368;11.984;2023-02-28T13:11:03;101714.88;;;9.55;22.65
12913;BME280;6524;51.368;11.984;2023-02-28T13:16:08;101712.94;;;8.24;24.44
12913;BME280;6524;51.368;11.984;2023-02-28T13:21:26;101713.34;;;9.87;23.16
12913;BME280;6524;51.368;11.984;2023-02-28T13:31:30;101709.16;;;9.28;23.50
12913;BME280;6524;51.368;11.984;2023-02-28T13:36:34;101709.38;;;9.59;23.46
12913;BME280;6524;51.368;11.984;2023-02-28T13:57:58;101695.81;;;9.48;23.61
12913;BME280;6524;51.368;11.984;2023-02-28T14:03:17;101690.16;;;8.82;24.72
12913;BME280;6524;51.368;11.984;2023-02-28T14:08:23;101687.69;;;8.17;25.32
12913;BME280;6524;51.368;11.984;2023-02-28T14:13:37;101689.75;;;7.90;25.12
12913;BME280;6524;51.368;11.984;2023-02-28T14:18:59;101678.09;;;7.96;25.83
12913;BME280;6524;51.368;11.984;2023-02-28T14:24:22;101674.38;;;8.00;25.69
12913;BME280;6524;51.368;11.984;2023-02-28T14:29:57;101683.78;;;7.43;26.25
12913;BME280;6524;51.368;11.984;2023-02-28T14:40:37;101675.78;;;7.22;25.93
12913;BME280;6524;51.368;11.984;2023-02-28T14:45:38;101684.22;;;6.86;26.47
12913;BME280;6524;51.368;11.984;2023-02-28T14:50:39;101671.72;;;7.35;25.79
12913;BME280;6524;51.368;11.984;2023-02-28T14:55:44;101673.03;;;7.25;26.50
12913;BME280;6524;51.368;11.984;2023-02-28T15:00:50;101664.75;;;7.78;26.08
12913;BME280;6524;51.368;11.984;2023-02-28T15:05:58;101676.75;;;7.64;26.19
12913;BME280;6524;51.368;11.984;2023-02-28T15:11:01;101667.38;;;7.34;26.29
12913;BME280;6524;51.368;11.984;2023-02-28T15:16:14;101665.94;;;7.70;25.84
12913;BME280;6524;51.368;11.984;2023-02-28T15:21:22;101651.78;;;7.72;26.55
12913;BME280;6524;51.368;11.984;2023-02-28T15:26:30;101658.63;;;7.12;27.16
12913;BME280;6524;51.368;11.984;2023-02-28T15:31:35;101655.78;;;6.71;27.62
12913;BME280;6524;51.368;11.984;2023-02-28T15:36:39;101658.06;;;6.57;27.45
12913;BME280;6524;51.368;11.984;2023-02-28T15:41:40;101652.22;;;6.72;27.56
12913;BME280;6524;51.368;11.984;2023-02-28T15:46:44;101663.75;;;6.21;27.53
12913;BME280;6524;51.368;11.984;2023-02-28T15:51:52;101663.13;;;5.88;28.31
12913;BME280;6524;51.368;11.984;2023-02-28T15:56:57;101657.06;;;5.31;29.37
12913;BME280;6524;51.368;11.984;2023-02-28T16:02:19;101665.72;;;5.07;30.12
12913;BME280;6524;51.368;11.984;2023-02-28T16:07:20;101657.81;;;5.36;30.43
12913;BME280;6524;51.368;11.984;2023-02-28T16:12:27;101666.97;;;4.95;30.46
12913;BME280;6524;51.368;11.984;2023-02-28T16:17:34;101666.63;;;5.06;30.87
12913;BME280;6524;51.368;11.984;2023-02-28T16:22:35;101659.13;;;4.93;30.76
12913;BME280;6524;51.368;11.984;2023-02-28T16:27:37;101665.22;;;4.33;31.42
12913;BME280;6524;51.368;11.984;2023-02-28T16:32:37;101669.25;;;4.12;31.75
12913;BME280;6524;51.368;11.984;2023-02-28T16:37:37;101667.31;;;3.86;31.89
12913;BME280;6524;51.368;11.984;2023-02-28T16:42:38;101667.81;;;4.00;32.73
12913;BME280;6524;51.368;11.984;2023-02-28T16:47:39;101662.38;;;3.74;32.50
12913;BME280;6524;51.368;11.984;2023-02-28T16:52:39;101672.88;;;3.74;33.05
12913;BME280;6524;51.368;11.984;2023-02-28T16:57:39;101683.50;;;2.90;33.73
12913;BME280;6524;51.368;11.984;2023-02-28T17:02:40;101686.38;;;1.85;35.54
12913;BME280;6524;51.368;11.984;2023-02-28T17:07:41;101690.78;;;1.79;35.95
12913;BME280;6524;51.368;11.984;2023-02-28T17:12:42;101697.66;;;1.87;36.45
12913;BME280;6524;51.368;11.984;2023-02-28T17:17:43;101710.28;;;1.57;37.72
12913;BME280;6524;51.368;11.984;2023-02-28T17:22:44;101715.31;;;1.69;37.52
12913;BME280;6524;51.368;11.984;2023-02-28T17:27:45;101709.84;;;1.88;37.77
12913;BME280;6524;51.368;11.984;2023-02-28T17:32:46;101714.31;;;2.31;37.06
12913;BME280;6524;51.368;11.984;2023-02-28T17:37:46;101713.72;;;2.15;37.50
12913;BME280;6524;51.368;11.984;2023-02-28T17:42:47;101712.53;;;1.80;38.87
12913;BME280;6524;51.368;11.984;2023-02-28T17:47:49;101718.75;;;1.71;38.40
12913;BME280;6524;51.368;11.984;2023-02-28T17:52:50;101703.44;;;1.47;38.97
12913;BME280;6524;51.368;11.984;2023-02-28T17:57:50;101706.44;;;1.79;38.76
12913;BME280;6524;51.368;11.984;2023-02-28T18:02:50;101706.88;;;1.52;38.80
12913;BME280;6524;51.368;11.984;2023-02-28T18:07:51;101711.31;;;1.45;38.99
12913;BME280;6524;51.368;11.984;2023-02-28T18:12:52;101712.59;;;1.15;39.79
12913;BME280;6524;51.368;11.984;2023-02-28T18:17:53;101714.63;;;0.95;39.60
12913;BME280;6524;51.368;11.984;2023-02-28T18:22:54;101707.78;;;0.87;39.63
12913;BME280;6524;51.368;11.984;2023-02-28T18:27:54;101708.66;;;0.83;39.09
12913;BME280;6524;51.368;11.984;2023-02-28T18:32:59;101706.56;;;0.40;40.15
12913;BME280;6524;51.368;11.984;2023-02-28T18:43:02;101699.59;;;0.39;41.13
12913;BME280;6524;51.368;11.984;2023-02-28T18:48:04;101693.59;;;0.34;41.88
12913;BME280;6524;51.368;11.984;2023-02-28T18:53:05;101695.88;;;0.62;41.29
12913;BME280;6524;51.368;11.984;2023-02-28T18:58:05;101698.75;;;0.39;41.20
12913;BME280;6524;51.368;11.984;2023-02-28T19:03:06;101694.34;;;0.42;40.63
12913;BME280;6524;51.368;11.984;2023-02-28T19:08:06;101698.06;;;0.17;40.99
12913;BME280;6524;51.368;11.984;2023-02-28T19:13:08;101695.81;;;-0.21;41.40
12913;BME280;6524;51.368;11.984;2023-02-28T19:18:08;101695.66;;;-0.03;41.63
12913;BME280;6524;51.368;11.984;2023-02-28T19:23:09;101694.72;;;0.03;41.24
12913;BME280;6524;51.368;11.984;2023-02-28T19:28:10;101701.66;;;0.07;41.96
12913;BME280;6524;51.368;11.984;2023-02-28T19:33:11;101707.06;;;-0.18;42.18
12913;BME280;6524;51.368;11.984;2023-02-28T19:38:11;101707.28;;;-0.48;42.19
12913;BME280;6524;51.368;11.984;2023-02-28T19:43:12;101705.53;;;-0.43;41.93
12913;BME280;6524;51.368;11.984;2023-02-28T19:48:12;101717.78;;;-0.61;42.31
12913;BME280;6524;51.368;11.984;2023-02-28T19:53:13;101709.69;;;-0.22;42.03
12913;BME280;6524;51.368;11.984;2023-02-28T19:58:13;101712.50;;;-0.50;42.83
12913;BME280;6524;51.368;11.984;2023-02-28T20:03:15;101726.38;;;-0.50;42.82
12913;BME280;6524;51.368;11.984;2023-02-28T20:08:17;101713.31;;;-0.42;41.86
12913;BME280;6524;51.368;11.984;2023-02-28T20:13:17;101726.53;;;-0.77;43.15
12913;BME280;6524;51.368;11.984;2023-02-28T20:18:18;101719.59;;;-0.72;43.56
12913;BME280;6524;51.368;11.984;2023-02-28T20:23:19;101723.94;;;-0.76;42.36
12913;BME280;6524;51.368;11.984;2023-02-28T20:28:23;101732.75;;;-1.10;43.38
12913;BME280;6524;51.368;11.984;2023-02-28T20:33:25;101731.88;;;-1.05;43.35
12913;BME280;6524;51.368;11.984;2023-02-28T20:38:25;101733.63;;;-1.07;43.55
12913;BME280;6524;51.368;11.984;2023-02-28T20:43:27;101731.94;;;-1.25;44.62
12913;BME280;6524;51.368;11.984;2023-02-28T20:48:29;101734.50;;;-1.09;43.87
12913;BME280;6524;51.368;11.984;2023-02-28T20:53:33;101730.19;;;-1.20;43.47
12913;BME280;6524;51.368;11.984;2023-02-28T20:58:36;101725.88;;;-1.27;44.42
12913;BME280;6524;51.368;11.984;2023-02-28T21:03:38;101725.00;;;-1.24;44.10
12913;BME280;6524;51.368;11.984;2023-02-28T21:08:41;101730.25;;;-1.33;43.90
12913;BME280;6524;51.368;11.984;2023-02-28T21:13:43;101723.38;;;-1.62;44.50
12913;BME280;6524;51.368;11.984;2023-02-28T21:18:44;101720.78;;;-1.94;45.25
12913;BME280;6524;51.368;11.984;2023-02-28T21:23:45;101719.91;;;-1.89;44.83
12913;BME280;6524;51.368;11.984;2023-02-28T21:28:54;101729.44;;;-2.00;46.27
12913;BME280;6524;51.368;11.984;2023-02-28T21:34:05;101722.50;;;-1.85;45.46
12913;BME280;6524;51.368;11.984;2023-02-28T21:39:16;101725.09;;;-2.05;45.14
12913;BME280;6524;51.368;11.984;2023-02-28T21:44:17;101732.03;;;-2.06;45.40
12913;BME280;6524;51.368;11.984;2023-02-28T21:49:17;101732.03;;;-2.03;45.03
12913;BME280;6524;51.368;11.984;2023-02-28T21:54:21;101735.47;;;-1.85;44.84
12913;BME280;6524;51.368;11.984;2023-02-28T21:59:23;101727.69;;;-2.18;45.46
12913;BME280;6524;51.368;11.984;2023-02-28T22:04:23;101730.28;;;-2.47;45.90
12913;BME280;6524;51.368;11.984;2023-02-28T22:09:24;101718.94;;;-2.73;47.02
12913;BME280;6524;51.368;11.984;2023-02-28T22:14:25;101719.91;;;-2.31;46.43
12913;BME280;6524;51.368;11.984;2023-02-28T22:19:25;101716.41;;;-2.55;46.65
12913;BME280;6524;51.368;11.984;2023-02-28T22:24:25;101723.31;;;-2.63;46.73
12913;BME280;6524;51.368;11.984;2023-02-28T22:29:26;101719.84;;;-2.62;46.53
12913;BME280;6524;51.368;11.984;2023-02-28T22:34:26;101723.38;;;-2.23;45.94
12913;BME280;6524;51.368;11.984;2023-02-28T22:39:26;101725.09;;;-2.38;45.74
12913;BME280;6524;51.368;11.984;2023-02-28T22:44:27;101716.16;;;-3.29;47.71
12913;BME280;6524;51.368;11.984;2023-02-28T22:49:27;101715.03;;;-3.75;49.28
12913;BME280;6524;51.368;11.984;2023-02-28T22:54:28;101715.84;;;-3.81;48.99
12913;BME280;6524;51.368;11.984;2023-02-28T22:59:28;101717.56;;;-3.86;48.92
12913;BME280;6524;51.368;11.984;2023-02-28T23:04:28;101720.94;;;-3.93;49.51
12913;BME280;6524;51.368;11.984;2023-02-28T23:09:29;101723.94;;;-4.40;50.46
12913;BME280;6524;51.368;11.984;2023-02-28T23:14:29;101733.94;;;-3.87;49.85
12913;BME280;6524;51.368;11.984;2023-02-28T23:19:30;101745.19;;;-3.85;49.46
12913;BME280;6524;51.368;11.984;2023-02-28T23:24:32;101753.13;;;-3.59;48.45
12913;BME280;6524;51.368;11.984;2023-02-28T23:29:33;101748.78;;;-3.61;47.91
12913;BME280;6524;51.368;11.984;2023-02-28T23:34:34;101755.41;;;-4.00;49.08
12913;BME280;6524;51.368;11.984;2023-02-28T23:39:34;101748.66;;;-3.77;48.55
12913;BME280;6524;51.368;11.984;2023-02-28T23:44:35;101744.28;;;-3.87;48.78
12913;BME280;6524;51.368;11.984;2023-02-28T23:49:35;101744.75;;;-4.28;50.06
12913;BME280;6524;51.368;11.984;2023-02-28T23:54:35;101752.78;;;-4.02;49.72
12913;BME280;6524;51.368;11.984;2023-02-28T23:59:36;101744.81;;;-4.22;49.50
